Selden, KS (67757)

6:04 AM CST on December 11, 2016 (GMT -0600)
Selden, KS | | Change Station

Elev 2858 ft 39.54 °N, 100.55 °W | Updated 14 seconds ago

Partly Cloudy
Partly Cloudy
30.2 °F
Feels Like 20 °F
N
14.1
Wind Variable Wind from NNW
Gusts 19.0 mph

Today
High -- | Low -- °F
--% Chance of Precip.
Yesterday
High -- | Low -- °F
Precip. -- in
Pressure 29.75 in
Visibility 10.0 miles
Clouds Clear
Windchill 20 °F
Dew Point 26 °F
Humidity 84%
Rainfall 0.00 in
Snow Depth Not available.
7:53 AM 5:18 PM
Waxing Gibbous, 91% visible
METAR KCBK 111155Z AUTO 34013KT 10SM CLR 00/M01 A2975 RMK AO2
Pressure 29.75 in
Visibility 10.0 miles
Clouds Clear
Windchill 20 °F
Dew Point 26 °F
Humidity 84%
Rainfall 0.00 in
Snow Depth Not available.
7:53 AM 5:18 PM
Waxing Gibbous, 91% visible
METAR KCBK 111155Z AUTO 34013KT 10SM CLR 00/M01 A2975 RMK AO2

10-Day Weather Forecast

Almanac

Astronomy

Dec. 11, 2016 Rise Set
Actual Time
Civil Twilight
Nautical Twilight
Astronomical Twilight
Moon
Length of Visible Light
Length of Day
Tomorrow will be .
, % of the Moon is Illuminated

Today's Extremes

State Highs State Lows

Community

WunderPhotos

Upload Photos

1,956,710 photos uploaded!

WunderBlog® & News

Nearby

Air Quality

  Air Quality AQ Index Pollutant
Not available.

Snow Depth

Station Depth Elevation

Earthquake Activity

City Distance Mag. Time & Date
Minimum magnitude displayed is 2.5.

Coastal Water Temperatures

Place Temperature

Stations

Nearby Weather Stations

Station Location Temp. Windchill Dew Point Humidity Wind Precip. Elev Updated Type
                   

Watches & Warnings

There are currently no watches in effect.